createdAt,value
2023-04-14T00:01:18.602Z,1.58
2023-04-14T00:03:44.964Z,2.40
2023-04-14T00:06:10.944Z,2.63
2023-04-14T00:08:36.854Z,2.40
2023-04-14T00:11:03.005Z,2.28
2023-04-14T00:13:28.927Z,2.40
2023-04-14T00:15:55.643Z,2.00
2023-04-14T00:18:21.495Z,2.40
2023-04-14T00:20:47.526Z,1.90
2023-04-14T00:23:13.431Z,2.03
2023-04-14T00:25:39.554Z,2.22
2023-04-14T00:28:05.387Z,2.25
2023-04-14T00:30:31.185Z,2.17
2023-04-14T00:32:57.080Z,2.03
2023-04-14T00:35:23.839Z,1.73
2023-04-14T00:37:51.175Z,1.98
2023-04-14T00:40:18.009Z,2.03
2023-04-14T00:42:45.082Z,2.30
2023-04-14T00:45:11.515Z,1.73
2023-04-14T00:47:39.071Z,1.80
2023-04-14T00:50:06.058Z,2.00
2023-04-14T00:52:31.928Z,1.75
2023-04-14T00:54:58.831Z,1.80
2023-04-14T00:57:26.490Z,1.95
2023-04-14T00:59:53.507Z,2.05
2023-04-14T01:02:19.754Z,2.58
2023-04-14T01:04:53.508Z,2.22
2023-04-14T01:07:22.311Z,2.33
2023-04-14T01:09:49.338Z,2.40
2023-04-14T01:12:20.436Z,1.90
2023-04-14T01:15:36.133Z,2.60
2023-04-14T01:18:13.034Z,2.00
2023-04-14T01:20:50.928Z,1.73
2023-04-14T01:23:31.200Z,2.17
2023-04-14T01:26:15.481Z,1.92
2023-04-14T01:29:06.309Z,1.88
2023-04-14T01:31:40.487Z,2.00
2023-04-14T01:34:20.583Z,2.03
2023-04-14T01:36:56.209Z,2.20
2023-04-14T01:41:56.047Z,1.73
2023-04-14T01:44:24.639Z,2.30
2023-04-14T01:46:55.928Z,2.13
2023-04-14T01:49:23.030Z,2.20
2023-04-14T01:51:50.470Z,2.33
2023-04-14T01:54:18.138Z,2.42
2023-04-14T01:56:46.157Z,1.40
2023-04-14T01:59:14.868Z,1.60
2023-04-14T02:01:43.417Z,1.70
2023-04-14T02:04:10.860Z,1.80
2023-04-14T02:06:38.808Z,1.95
2023-04-14T02:09:09.664Z,1.75
2023-04-14T02:11:36.860Z,1.95
2023-04-14T02:14:04.257Z,2.38
2023-04-14T02:16:31.054Z,2.10
2023-04-14T02:18:58.809Z,2.33
2023-04-14T02:21:26.559Z,1.42
2023-04-14T02:23:52.412Z,1.77
2023-04-14T02:26:21.793Z,2.03
2023-04-14T02:29:00.668Z,2.03
2023-04-14T02:31:29.645Z,1.60
2023-04-14T02:33:59.852Z,1.70
2023-04-14T02:36:42.480Z,1.60
2023-04-14T02:39:21.227Z,1.83
2023-04-14T02:41:49.895Z,2.00
2023-04-14T02:44:31.787Z,2.47
2023-04-14T02:47:03.551Z,1.60
2023-04-14T02:49:34.021Z,2.33
2023-04-14T02:52:02.538Z,1.55
2023-04-14T02:54:29.035Z,1.77
2023-04-14T02:56:56.699Z,1.58
2023-04-14T02:59:24.138Z,1.70
2023-04-14T03:01:50.999Z,2.20
2023-04-14T03:04:17.581Z,1.90
2023-04-14T03:06:43.914Z,1.60
2023-04-14T03:09:10.467Z,1.95
2023-04-14T03:11:36.763Z,1.90
2023-04-14T03:14:03.243Z,2.20
2023-04-14T03:16:31.032Z,2.95
2023-04-14T03:18:58.403Z,1.80
2023-04-14T03:21:25.888Z,1.23
2023-04-14T03:23:52.581Z,1.55
2023-04-14T03:26:19.922Z,2.63
2023-04-14T03:28:50.067Z,1.75
2023-04-14T03:31:19.024Z,1.67
2023-04-14T03:33:48.379Z,2.28
2023-04-14T03:36:16.506Z,2.90
2023-04-14T03:38:45.020Z,2.47
2023-04-14T03:41:11.645Z,2.10
2023-04-14T03:43:38.374Z,2.28
2023-04-14T03:46:05.398Z,1.83
2023-04-14T03:48:33.841Z,2.33
2023-04-14T03:51:03.345Z,1.90
2023-04-14T03:53:31.247Z,2.00
2023-04-14T03:55:59.177Z,2.17
2023-04-14T03:58:27.788Z,2.70
2023-04-14T04:00:57.465Z,2.28
2023-04-14T04:03:24.408Z,2.60
2023-04-14T04:05:51.953Z,2.17
2023-04-14T04:08:19.175Z,2.35
2023-04-14T04:10:47.524Z,2.40
2023-04-14T04:13:18.632Z,2.25
2023-04-14T04:15:48.768Z,3.13
2023-04-14T04:18:16.254Z,4.00
2023-04-14T04:20:43.212Z,2.75
2023-04-14T04:23:10.839Z,3.22
2023-04-14T04:25:38.923Z,2.70
2023-04-14T04:28:05.015Z,2.85
2023-04-14T04:30:32.548Z,2.63
2023-04-14T04:33:02.651Z,2.40
2023-04-14T04:35:29.149Z,2.40
2023-04-14T04:37:56.062Z,2.95
2023-04-14T04:40:21.880Z,3.08
2023-04-14T04:42:47.819Z,2.50
2023-04-14T04:45:30.774Z,2.20
2023-04-14T04:47:56.751Z,2.33
2023-04-14T04:50:22.648Z,2.35
2023-04-14T04:52:48.481Z,2.88
2023-04-14T04:55:14.808Z,2.55
2023-04-14T04:57:40.700Z,2.20
2023-04-14T05:00:08.261Z,3.05
2023-04-14T05:02:34.073Z,3.65
2023-04-14T05:04:59.912Z,4.55
2023-04-14T05:07:25.845Z,3.38
2023-04-14T05:09:52.540Z,2.83
2023-04-14T05:12:18.407Z,2.95
2023-04-14T05:14:44.447Z,2.85
2023-04-14T05:17:10.341Z,2.67
2023-04-14T05:19:36.315Z,3.92
2023-04-14T05:22:02.117Z,7.20
2023-04-14T05:24:27.953Z,4.05
2023-04-14T05:27:12.505Z,2.75
2023-04-14T05:29:39.782Z,2.38
2023-04-14T05:32:05.713Z,3.47
2023-04-14T05:34:31.582Z,3.13
2023-04-14T05:36:57.441Z,2.97
2023-04-14T05:39:23.845Z,2.67
2023-04-14T05:41:49.638Z,2.88
2023-04-14T05:44:15.531Z,3.58
2023-04-14T05:46:41.462Z,3.03
2023-04-14T05:49:07.308Z,4.13
2023-04-14T05:51:33.655Z,2.60
2023-04-14T05:53:59.768Z,2.97
2023-04-14T05:56:25.839Z,3.00
2023-04-14T05:58:53.530Z,3.03
2023-04-14T06:01:19.415Z,3.30
2023-04-14T06:03:45.582Z,2.42
2023-04-14T06:06:11.570Z,2.80
2023-04-14T06:08:37.427Z,2.40
2023-04-14T06:11:03.373Z,2.17
2023-04-14T06:13:31.494Z,1.60
2023-04-14T06:15:59.899Z,2.05
2023-04-14T06:18:25.941Z,1.73
2023-04-14T06:20:51.822Z,2.50
2023-04-14T06:23:17.634Z,2.33
2023-04-14T06:25:43.470Z,2.05
2023-04-14T06:28:09.474Z,2.08
2023-04-14T06:30:36.229Z,3.17
2023-04-14T06:33:03.795Z,2.70
2023-04-14T06:35:33.520Z,1.77
2023-04-14T06:38:03.134Z,1.70
2023-04-14T06:40:29.037Z,1.98
2023-04-14T06:42:55.140Z,2.67
2023-04-14T06:45:21.054Z,2.22
2023-04-14T06:47:47.016Z,2.63
2023-04-14T06:50:12.950Z,2.72
2023-04-14T06:52:38.778Z,2.20
2023-04-14T06:55:04.927Z,3.05
2023-04-14T06:57:30.732Z,1.83
2023-04-14T06:59:56.612Z,3.38
2023-04-14T07:02:22.522Z,3.67
2023-04-14T07:04:48.583Z,2.47
2023-04-14T07:07:14.647Z,2.35
2023-04-14T07:09:43.891Z,1.83
2023-04-14T07:12:13.939Z,2.30
2023-04-14T07:14:40.516Z,1.80
2023-04-14T07:17:06.383Z,2.03
2023-04-14T07:19:32.181Z,2.17
2023-04-14T07:21:58.077Z,2.90
2023-04-14T07:24:24.000Z,3.42
2023-04-14T07:26:49.800Z,3.20
2023-04-14T07:29:16.056Z,3.00
2023-04-14T07:31:42.279Z,2.67
2023-04-14T07:34:08.189Z,2.72
2023-04-14T07:36:34.158Z,3.45
2023-04-14T07:39:00.229Z,2.55
2023-04-14T07:41:27.276Z,2.90
2023-04-14T07:43:58.373Z,3.05
2023-04-14T07:46:24.304Z,2.55
2023-04-14T07:48:50.598Z,2.83
2023-04-14T07:51:16.654Z,3.33
2023-04-14T07:53:44.274Z,2.85
2023-04-14T07:56:11.372Z,3.00
2023-04-14T07:58:37.631Z,2.95
2023-04-14T08:01:04.686Z,2.85
2023-04-14T08:03:30.725Z,3.03
2023-04-14T08:06:06.887Z,2.78
2023-04-14T08:08:33.679Z,3.00
2023-04-14T08:10:59.627Z,2.80
2023-04-14T08:13:25.412Z,2.72
2023-04-14T08:15:51.257Z,2.17
2023-04-14T08:18:17.533Z,2.40
2023-04-14T08:20:43.631Z,2.45
2023-04-14T08:23:10.963Z,2.50
2023-04-14T08:25:37.476Z,2.97
2023-04-14T08:28:03.505Z,2.67
2023-04-14T08:30:29.378Z,2.47
2023-04-14T08:32:56.982Z,1.90
2023-04-14T08:35:35.233Z,2.47
2023-04-14T08:38:06.173Z,2.17
2023-04-14T08:40:37.583Z,2.67
2023-04-14T08:43:04.248Z,2.58
2023-04-14T08:45:31.834Z,2.40
2023-04-14T08:48:02.251Z,1.95
2023-04-14T08:50:36.340Z,2.25
2023-04-14T08:53:05.532Z,2.13
2023-04-14T08:55:38.357Z,2.22
2023-04-14T08:58:06.787Z,2.53
2023-04-14T09:00:33.967Z,2.05
2023-04-14T09:03:00.108Z,2.38
2023-04-14T09:05:26.404Z,2.63
2023-04-14T09:07:52.919Z,1.90
2023-04-14T09:10:21.448Z,2.20
2023-04-14T09:12:48.150Z,2.47
2023-04-14T09:15:15.805Z,2.35
2023-04-14T09:17:42.276Z,1.95
2023-04-14T09:20:35.747Z,2.85
2023-04-14T09:22:57.266Z,2.22
2023-04-14T09:25:23.226Z,2.58
2023-04-14T09:27:49.163Z,2.38
2023-04-14T09:30:16.959Z,2.70
2023-04-14T09:32:46.176Z,3.00
2023-04-14T09:35:13.501Z,1.75
2023-04-14T09:37:43.907Z,2.85
2023-04-14T09:40:11.166Z,2.10
2023-04-14T09:42:42.137Z,2.17
2023-04-14T09:45:08.871Z,2.28
2023-04-14T09:47:35.083Z,1.90
2023-04-14T09:50:03.016Z,2.00
2023-04-14T09:52:37.822Z,1.90
2023-04-14T09:55:14.706Z,2.47
2023-04-14T09:57:42.080Z,2.10
2023-04-14T10:00:23.909Z,1.98
2023-04-14T10:02:55.589Z,2.55
2023-04-14T10:05:26.337Z,1.88
2023-04-14T10:07:52.214Z,2.85
2023-04-14T10:10:18.027Z,2.45
2023-04-14T10:12:45.020Z,1.80
2023-04-14T10:15:12.148Z,2.30
2023-04-14T10:17:38.854Z,2.80
2023-04-14T10:20:06.265Z,2.60
2023-04-14T10:22:32.364Z,2.53
2023-04-14T10:24:59.033Z,2.50
2023-04-14T10:27:30.637Z,2.67
2023-04-14T10:29:57.729Z,2.38
2023-04-14T10:32:25.665Z,2.50
2023-04-14T10:35:05.884Z,2.22
2023-04-14T10:37:32.739Z,2.60
2023-04-14T10:40:01.192Z,2.40
2023-04-14T10:42:30.249Z,1.80
2023-04-14T10:45:05.130Z,1.92
2023-04-14T10:47:31.534Z,2.20
2023-04-14T10:49:58.157Z,3.08
2023-04-14T10:52:24.630Z,2.00
2023-04-14T10:54:56.551Z,1.80
2023-04-14T10:57:26.546Z,2.72
2023-04-14T10:59:54.388Z,1.98
2023-04-14T11:02:27.858Z,1.77
2023-04-14T11:05:04.717Z,2.70
2023-04-14T11:07:37.400Z,2.35
2023-04-14T11:10:18.769Z,1.95
2023-04-14T11:12:46.539Z,2.38
2023-04-14T11:15:14.801Z,1.83
2023-04-14T11:17:45.215Z,1.92
2023-04-14T11:20:21.724Z,2.00
2023-04-14T11:22:52.301Z,1.58
2023-04-14T11:25:23.046Z,1.60
2023-04-14T11:27:49.833Z,2.40
2023-04-14T11:30:20.489Z,2.28
2023-04-14T11:32:56.054Z,1.92
2023-04-14T11:37:59.043Z,1.70
2023-04-14T11:40:26.752Z,1.55
2023-04-14T11:42:54.936Z,1.38
2023-04-14T11:45:21.188Z,1.40
2023-04-14T11:48:01.004Z,1.70
2023-04-14T11:50:30.418Z,1.70
2023-04-14T11:52:59.055Z,2.13
2023-04-14T11:55:29.189Z,1.50
2023-04-14T11:57:56.444Z,1.40
2023-04-14T12:00:23.664Z,1.80
2023-04-14T12:02:50.519Z,1.38
2023-04-14T12:05:22.887Z,1.75
2023-04-14T12:07:49.622Z,1.85
2023-04-14T12:10:15.645Z,1.55
2023-04-14T12:12:41.856Z,1.83
2023-04-14T12:15:08.912Z,1.60
2023-04-14T12:17:36.603Z,1.67
2023-04-14T12:20:03.532Z,1.60
2023-04-14T12:22:29.995Z,1.70
2023-04-14T12:24:56.821Z,1.73
2023-04-14T12:27:24.500Z,1.45
2023-04-14T12:29:51.313Z,1.60
2023-04-14T12:32:17.583Z,1.98
2023-04-14T12:35:01.618Z,1.38
2023-04-14T12:37:27.848Z,2.00
2023-04-14T12:40:00.064Z,1.40
2023-04-14T12:42:27.673Z,1.70
2023-04-14T12:45:01.482Z,2.20
2023-04-14T12:47:29.697Z,1.77
2023-04-14T12:49:56.386Z,2.30
2023-04-14T12:52:33.826Z,1.40
2023-04-14T12:54:59.827Z,2.15
2023-04-14T12:57:26.506Z,1.77
2023-04-14T12:59:52.405Z,1.25
2023-04-14T13:02:18.348Z,1.90
2023-04-14T13:04:44.426Z,1.38
2023-04-14T13:07:10.347Z,1.52
2023-04-14T13:09:36.174Z,1.20
2023-04-14T13:12:02.050Z,1.42
2023-04-14T13:14:27.896Z,1.13
2023-04-14T13:16:54.737Z,1.58
2023-04-14T13:19:21.892Z,1.70
2023-04-14T13:21:49.661Z,1.50
2023-04-14T13:24:15.637Z,1.85
2023-04-14T13:26:41.516Z,1.35
2023-04-14T13:29:07.491Z,1.75
2023-04-14T13:31:35.125Z,1.70
2023-04-14T13:34:00.974Z,1.42
2023-04-14T13:36:26.963Z,1.52
2023-04-14T13:38:53.929Z,1.20
2023-04-14T13:41:20.008Z,2.22
2023-04-14T13:43:46.022Z,1.45
2023-04-14T13:46:12.019Z,1.58
2023-04-14T13:48:38.121Z,1.85
2023-04-14T13:51:04.673Z,1.40
2023-04-14T13:53:30.592Z,1.20
2023-04-14T13:55:56.400Z,1.58
2023-04-14T13:58:22.342Z,1.70
2023-04-14T14:00:48.239Z,1.45
2023-04-14T14:03:14.312Z,1.58
2023-04-14T14:05:43.031Z,1.50
2023-04-14T14:08:09.022Z,1.60
2023-04-14T14:10:34.887Z,1.38
2023-04-14T14:13:00.762Z,2.28
2023-04-14T14:15:26.708Z,1.60
2023-04-14T14:17:54.467Z,2.15
2023-04-14T14:20:20.664Z,2.00
2023-04-14T14:22:46.645Z,1.33
2023-04-14T14:25:20.275Z,1.55
2023-04-14T14:27:47.213Z,1.63
2023-04-14T14:30:13.114Z,1.55
2023-04-14T14:32:43.045Z,1.42
2023-04-14T14:35:09.749Z,1.35
2023-04-14T14:37:35.869Z,1.45
2023-04-14T14:40:02.095Z,1.52
2023-04-14T14:42:27.951Z,1.83
2023-04-14T14:44:53.779Z,1.48
2023-04-14T14:47:20.012Z,1.73
2023-04-14T14:49:56.565Z,1.75
2023-04-14T14:52:22.915Z,1.42
2023-04-14T14:54:48.740Z,1.80
2023-04-14T14:57:14.635Z,2.08
2023-04-14T14:59:42.477Z,1.83
2023-04-14T15:02:08.680Z,1.35
2023-04-14T15:04:34.649Z,1.77
2023-04-14T15:07:00.836Z,1.67
2023-04-14T15:09:26.778Z,1.73
2023-04-14T15:11:52.614Z,6.05
2023-04-14T15:14:18.576Z,4.60
2023-04-14T15:16:44.502Z,10.52
2023-04-14T15:19:10.549Z,6.43
2023-04-14T15:21:36.387Z,7.20
2023-04-14T15:24:02.471Z,10.48
2023-04-14T15:26:28.478Z,5.32
2023-04-14T15:28:54.777Z,2.97
2023-04-14T15:31:20.879Z,3.45
2023-04-14T15:33:49.730Z,3.60
2023-04-14T15:36:15.674Z,5.47
2023-04-14T15:38:41.559Z,4.50
2023-04-14T15:41:11.147Z,6.55
2023-04-14T15:43:36.962Z,6.35
2023-04-14T15:46:02.854Z,3.63
2023-04-14T15:48:28.973Z,2.75
2023-04-14T15:50:54.962Z,2.45
2023-04-14T15:53:20.798Z,2.47
2023-04-14T15:55:49.498Z,3.25
2023-04-14T15:58:15.426Z,3.45
2023-04-14T16:00:41.242Z,4.13
2023-04-14T16:03:07.285Z,2.33
2023-04-14T16:05:35.169Z,2.75
2023-04-14T16:08:01.375Z,2.80
2023-04-14T16:10:28.103Z,4.07
2023-04-14T16:12:53.994Z,2.88
2023-04-14T16:15:19.824Z,3.50
2023-04-14T16:17:45.969Z,1.80
2023-04-14T16:20:12.889Z,3.15
2023-04-14T16:22:38.965Z,1.85
2023-04-14T16:25:06.194Z,3.92
2023-04-14T16:27:33.011Z,4.78
2023-04-14T16:29:59.327Z,3.13
2023-04-14T16:32:26.189Z,34.95
2023-04-14T16:34:52.008Z,38.05
2023-04-14T16:37:18.889Z,15.68
2023-04-14T16:39:45.623Z,2.35
2023-04-14T16:42:11.714Z,2.80
2023-04-14T16:44:37.755Z,1.17
2023-04-14T16:47:03.661Z,1.85
2023-04-14T16:49:29.950Z,3.45
2023-04-14T16:51:56.861Z,2.05
2023-04-14T16:54:23.259Z,1.98
2023-04-14T16:56:49.074Z,1.27
2023-04-14T16:59:14.887Z,1.95
2023-04-14T17:01:40.755Z,2.30
2023-04-14T17:04:09.062Z,1.67
2023-04-14T17:06:35.555Z,2.22
2023-04-14T17:09:01.514Z,2.70
2023-04-14T17:11:27.414Z,2.83
2023-04-14T17:13:53.344Z,2.80
2023-04-14T17:16:19.523Z,3.25
2023-04-14T17:18:47.567Z,4.03
2023-04-14T17:21:13.396Z,2.83
2023-04-14T17:23:40.157Z,3.72
2023-04-14T17:26:06.218Z,3.25
2023-04-14T17:28:34.111Z,3.47
2023-04-14T17:30:59.950Z,4.00
2023-04-14T17:33:26.565Z,3.28
2023-04-14T17:35:55.600Z,3.30
2023-04-14T17:38:22.758Z,4.32
2023-04-14T17:40:49.886Z,3.67
2023-04-14T17:43:16.004Z,5.72
2023-04-14T17:45:43.161Z,4.60
2023-04-14T17:48:09.566Z,3.90
2023-04-14T17:50:35.428Z,3.78
2023-04-14T17:53:01.332Z,4.70
2023-04-14T17:55:27.542Z,4.28
2023-04-14T17:57:54.561Z,3.83
2023-04-14T18:00:20.595Z,4.40
2023-04-14T18:02:46.745Z,4.57
2023-04-14T18:05:13.256Z,4.00
2023-04-14T18:07:41.114Z,4.10
2023-04-14T18:10:07.597Z,3.58
2023-04-14T18:12:33.829Z,3.00
2023-04-14T18:14:59.754Z,2.80
2023-04-14T18:17:25.733Z,2.72
2023-04-14T18:19:55.590Z,2.20
2023-04-14T18:22:21.450Z,2.45
2023-04-14T18:24:48.568Z,2.67
2023-04-14T18:29:43.342Z,2.38
2023-04-14T18:32:09.209Z,2.30
2023-04-14T18:34:35.327Z,2.10
2023-04-14T18:37:03.151Z,2.85
2023-04-14T18:39:36.072Z,2.90
2023-04-14T18:42:02.945Z,2.83
2023-04-14T18:44:28.914Z,2.25
2023-04-14T18:46:55.607Z,2.78
2023-04-14T18:49:22.423Z,2.67
2023-04-14T18:51:49.109Z,2.78
2023-04-14T18:54:15.084Z,2.70
2023-04-14T18:56:41.133Z,2.85
2023-04-14T18:59:07.005Z,2.90
2023-04-14T19:01:35.433Z,2.70
2023-04-14T19:04:02.419Z,2.90
2023-04-14T19:06:28.472Z,2.50
2023-04-14T19:08:54.380Z,2.40
2023-04-14T19:11:20.281Z,2.75
2023-04-14T19:13:46.470Z,3.38
2023-04-14T19:16:12.754Z,3.55
2023-04-14T19:18:39.147Z,3.72
2023-04-14T19:21:08.657Z,3.38
2023-04-14T19:23:35.235Z,3.17
2023-04-14T19:26:01.752Z,3.13
2023-04-14T19:28:28.609Z,3.20
2023-04-14T19:30:55.016Z,3.22
2023-04-14T19:33:20.855Z,3.22
2023-04-14T19:35:47.966Z,2.95
2023-04-14T19:38:16.175Z,2.90
2023-04-14T19:40:48.930Z,2.75
2023-04-14T19:43:16.017Z,2.65
2023-04-14T19:45:56.438Z,2.72
2023-04-14T19:48:24.517Z,3.60
2023-04-14T19:50:54.569Z,2.58
2023-04-14T19:53:21.497Z,2.55
2023-04-14T19:55:51.476Z,2.45
2023-04-14T19:58:21.454Z,2.38
2023-04-14T20:00:51.104Z,2.47
2023-04-14T20:03:17.824Z,1.85
2023-04-14T20:05:44.058Z,2.20
2023-04-14T20:08:10.038Z,2.20
2023-04-14T20:10:36.200Z,2.92
2023-04-14T20:13:02.299Z,2.75
2023-04-14T20:15:28.622Z,2.50
2023-04-14T20:17:55.007Z,2.50
2023-04-14T20:20:21.280Z,3.08
2023-04-14T20:22:48.714Z,1.95
2023-04-14T20:25:14.703Z,2.88
2023-04-14T20:27:40.525Z,3.10
2023-04-14T20:30:06.930Z,2.85
2023-04-14T20:32:33.431Z,2.30
2023-04-14T20:34:59.924Z,2.70
2023-04-14T20:37:26.090Z,2.78
2023-04-14T20:39:53.596Z,3.38
2023-04-14T20:42:19.478Z,3.75
2023-04-14T20:44:45.725Z,2.58
2023-04-14T20:47:12.021Z,2.58
2023-04-14T20:49:38.600Z,3.35
2023-04-14T20:52:04.984Z,2.42
2023-04-14T20:54:31.150Z,2.83
2023-04-14T20:56:57.270Z,2.60
2023-04-14T20:59:23.613Z,2.35
2023-04-14T21:01:50.705Z,2.42
2023-04-14T21:04:17.136Z,2.67
2023-04-14T21:06:43.470Z,3.15
2023-04-14T21:09:09.475Z,3.13
2023-04-14T21:11:37.353Z,3.50
2023-04-14T21:15:44.282Z,3.60
2023-04-14T21:16:50.166Z,3.20
2023-04-14T21:19:16.594Z,3.00
2023-04-14T21:21:42.370Z,3.25
2023-04-14T21:24:08.404Z,3.53
2023-04-14T21:26:34.243Z,3.20
2023-04-14T21:29:00.526Z,3.10
2023-04-14T21:31:26.715Z,2.97
2023-04-14T21:34:03.882Z,3.03
2023-04-14T21:36:30.341Z,3.17
2023-04-14T21:38:56.521Z,3.03
2023-04-14T21:41:22.453Z,3.33
2023-04-14T21:43:48.312Z,3.35
2023-04-14T21:46:14.293Z,2.90
2023-04-14T21:48:40.454Z,2.92
2023-04-14T21:51:06.905Z,3.08
2023-04-14T21:53:32.792Z,3.47
2023-04-14T21:56:10.365Z,3.08
2023-04-14T21:58:38.488Z,2.83
2023-04-14T22:01:04.930Z,3.63
2023-04-14T22:03:32.514Z,3.42
2023-04-14T22:06:02.024Z,2.92
2023-04-14T22:08:27.885Z,3.58
2023-04-14T22:10:54.325Z,3.38
2023-04-14T22:13:20.334Z,3.75
2023-04-14T22:15:46.262Z,3.22
2023-04-14T22:18:12.289Z,3.30
2023-04-14T22:20:38.966Z,3.60
2023-04-14T22:23:05.305Z,3.33
2023-04-14T22:25:31.256Z,3.70
2023-04-14T22:27:57.045Z,3.72
2023-04-14T22:30:22.995Z,3.50
2023-04-14T22:32:48.962Z,3.45
2023-04-14T22:35:15.624Z,3.20
2023-04-14T22:37:41.473Z,2.90
2023-04-14T22:40:07.787Z,3.03
2023-04-14T22:42:33.556Z,3.17
2023-04-14T22:45:00.572Z,3.38
2023-04-14T22:47:26.426Z,3.25
2023-04-14T22:49:52.213Z,3.08
2023-04-14T22:52:18.857Z,2.92
2023-04-14T22:54:45.142Z,3.15
2023-04-14T22:57:11.001Z,3.28
2023-04-14T22:59:37.038Z,3.13
2023-04-14T23:02:03.646Z,3.03
2023-04-14T23:04:30.722Z,4.05
2023-04-14T23:06:56.621Z,2.90
2023-04-14T23:09:22.419Z,3.72
2023-04-14T23:11:48.636Z,4.20
2023-04-14T23:14:14.477Z,4.28
2023-04-14T23:16:42.525Z,3.72
2023-04-14T23:19:09.650Z,4.47
2023-04-14T23:21:35.462Z,4.60
2023-04-14T23:24:01.284Z,4.65
2023-04-14T23:26:27.840Z,4.72
2023-04-14T23:28:53.664Z,5.07
2023-04-14T23:31:19.592Z,4.40
2023-04-14T23:33:47.918Z,4.88
2023-04-14T23:36:13.785Z,4.68
2023-04-14T23:38:39.640Z,5.20
2023-04-14T23:41:05.460Z,5.70
2023-04-14T23:43:31.298Z,4.53
2023-04-14T23:45:57.264Z,5.45
2023-04-14T23:48:23.242Z,5.25
2023-04-14T23:51:03.437Z,5.60
2023-04-14T23:53:35.379Z,5.28
2023-04-14T23:56:02.939Z,5.63
2023-04-14T23:58:30.160Z,5.72
